createdAt,value
2019-03-13T00:01:55.469Z,12.17
2019-03-13T00:04:21.782Z,12.16
2019-03-13T00:06:48.096Z,12.16
2019-03-13T00:09:14.397Z,12.14
2019-03-13T00:11:40.712Z,12.14
2019-03-13T00:14:07.018Z,12.13
2019-03-13T00:16:33.350Z,12.09
2019-03-13T00:18:59.657Z,12.02
2019-03-13T00:21:25.964Z,11.99
2019-03-13T00:23:52.270Z,11.99
2019-03-13T00:26:18.585Z,11.99
2019-03-13T00:28:44.889Z,11.99
2019-03-13T00:31:11.192Z,11.99
2019-03-13T00:33:37.502Z,11.98
2019-03-13T00:36:03.804Z,11.99
2019-03-13T00:38:30.145Z,11.98
2019-03-13T00:40:56.455Z,11.97
2019-03-13T00:43:22.769Z,11.95
2019-03-13T00:45:49.068Z,11.94
2019-03-13T00:48:15.370Z,11.92
2019-03-13T00:50:41.700Z,11.91
2019-03-13T00:53:08.010Z,11.91
2019-03-13T00:55:34.319Z,11.91
2019-03-13T00:58:00.638Z,11.90
2019-03-13T01:00:26.938Z,11.86
2019-03-13T01:02:53.249Z,11.79
2019-03-13T01:05:19.547Z,11.74
2019-03-13T01:07:45.855Z,11.74
2019-03-13T01:10:12.156Z,11.75
2019-03-13T01:12:38.462Z,11.77
2019-03-13T01:15:04.779Z,11.77
2019-03-13T01:17:31.108Z,11.77
2019-03-13T01:19:57.418Z,11.78
2019-03-13T01:22:23.735Z,11.77
2019-03-13T01:24:50.052Z,11.78
2019-03-13T01:27:16.347Z,11.77
2019-03-13T01:29:42.657Z,11.75
2019-03-13T01:32:08.959Z,11.75
2019-03-13T01:34:35.274Z,11.75
2019-03-13T01:37:01.584Z,11.74
2019-03-13T01:39:27.921Z,11.73
2019-03-13T01:41:54.228Z,11.73
2019-03-13T01:44:20.536Z,11.72
2019-03-13T01:46:46.852Z,11.68
2019-03-13T01:49:13.168Z,11.62
2019-03-13T01:51:39.479Z,11.58
2019-03-13T01:54:05.785Z,11.56
2019-03-13T01:56:32.123Z,11.59
2019-03-13T01:58:58.426Z,11.59
2019-03-13T02:01:24.739Z,11.59
2019-03-13T02:03:51.053Z,11.57
2019-03-13T02:06:17.366Z,11.58
2019-03-13T02:08:43.674Z,11.58
2019-03-13T02:11:09.979Z,11.58
2019-03-13T02:13:36.311Z,11.59
2019-03-13T02:16:02.619Z,11.58
2019-03-13T02:18:28.948Z,11.58
2019-03-13T02:20:55.252Z,11.56
2019-03-13T02:23:21.555Z,11.55
2019-03-13T02:25:47.861Z,11.55
2019-03-13T02:28:14.186Z,11.54
2019-03-13T02:30:40.503Z,11.51
2019-03-13T02:33:06.794Z,11.48
2019-03-13T02:35:33.115Z,11.41
2019-03-13T02:37:59.432Z,11.36
2019-03-13T02:40:25.736Z,11.38
2019-03-13T02:42:52.043Z,11.40
2019-03-13T02:45:18.367Z,11.40
2019-03-13T02:47:44.680Z,11.40
2019-03-13T02:50:10.996Z,11.41
2019-03-13T02:52:37.394Z,11.40
2019-03-13T02:55:03.625Z,11.41
2019-03-13T02:57:29.924Z,11.40
2019-03-13T02:59:56.234Z,11.41
2019-03-13T03:02:22.558Z,11.40
2019-03-13T03:04:48.856Z,11.40
2019-03-13T03:07:15.184Z,11.40
2019-03-13T03:09:41.489Z,11.39
2019-03-13T03:12:07.825Z,11.39
2019-03-13T03:14:34.131Z,11.37
2019-03-13T03:17:00.435Z,11.33
2019-03-13T03:19:26.754Z,11.35
2019-03-13T03:21:53.063Z,11.29
2019-03-13T03:24:19.369Z,11.28
2019-03-13T03:26:45.667Z,11.31
2019-03-13T03:29:12.009Z,11.32
2019-03-13T03:31:38.312Z,11.38
2019-03-13T03:34:04.645Z,11.38
2019-03-13T03:36:30.946Z,11.41
2019-03-13T03:38:57.240Z,11.42
2019-03-13T03:41:23.540Z,11.44
2019-03-13T03:43:49.865Z,11.45
2019-03-13T03:46:16.176Z,11.47
2019-03-13T03:48:42.476Z,11.48
2019-03-13T03:51:08.804Z,11.50
2019-03-13T03:53:35.114Z,11.51
2019-03-13T03:56:01.413Z,11.52
2019-03-13T03:58:29.620Z,11.53
2019-03-13T04:00:54.042Z,11.52
2019-03-13T04:03:20.358Z,11.50
2019-03-13T04:05:46.668Z,11.45
2019-03-13T04:08:12.979Z,11.39
2019-03-13T04:10:39.301Z,11.39
2019-03-13T04:13:05.607Z,11.43
2019-03-13T04:15:31.931Z,11.45
2019-03-13T04:17:58.265Z,11.48
2019-03-13T04:20:24.569Z,11.49
2019-03-13T04:22:50.888Z,11.51
2019-03-13T04:25:17.197Z,11.52
2019-03-13T04:27:43.509Z,11.53
2019-03-13T04:30:09.828Z,11.52
2019-03-13T04:32:36.132Z,11.52
2019-03-13T04:35:02.475Z,11.51
2019-03-13T04:37:28.778Z,11.51
2019-03-13T04:39:55.078Z,11.51
2019-03-13T04:42:21.388Z,11.51
2019-03-13T04:44:47.704Z,11.51
2019-03-13T04:47:14.016Z,11.49
2019-03-13T04:49:40.331Z,11.43
2019-03-13T04:52:06.677Z,11.39
2019-03-13T04:54:32.947Z,11.35
2019-03-13T04:56:59.281Z,11.35
2019-03-13T04:59:25.585Z,11.36
2019-03-13T05:01:51.892Z,11.38
2019-03-13T05:04:18.204Z,11.41
2019-03-13T05:06:44.503Z,11.43
2019-03-13T05:09:10.830Z,11.44
2019-03-13T05:11:37.130Z,11.44
2019-03-13T05:14:03.433Z,11.45
2019-03-13T05:16:29.747Z,11.46
2019-03-13T05:18:56.055Z,11.45
2019-03-13T05:21:22.367Z,11.46
2019-03-13T05:23:48.667Z,11.45
2019-03-13T05:26:14.985Z,11.47
2019-03-13T05:28:41.309Z,11.46
2019-03-13T05:31:07.640Z,11.47
2019-03-13T05:33:33.948Z,11.44
2019-03-13T05:36:00.256Z,11.39
2019-03-13T05:38:26.570Z,11.34
2019-03-13T05:40:52.880Z,11.31
2019-03-13T05:43:19.183Z,11.37
2019-03-13T05:45:45.495Z,11.53
2019-03-13T05:48:11.811Z,12.07
2019-03-13T05:50:38.113Z,12.56
2019-03-13T05:53:04.442Z,12.96
2019-03-13T05:55:30.762Z,13.27
2019-03-13T05:57:57.061Z,13.44
2019-03-13T06:00:23.378Z,13.34
2019-03-13T06:02:49.681Z,13.17
2019-03-13T06:05:15.995Z,13.03
2019-03-13T06:07:42.305Z,12.94
2019-03-13T06:10:08.639Z,12.92
2019-03-13T06:12:34.954Z,12.89
2019-03-13T06:15:03.558Z,12.87
2019-03-13T06:17:27.583Z,12.85
2019-03-13T06:19:53.896Z,12.85
2019-03-13T06:22:20.211Z,12.86
2019-03-13T06:24:46.526Z,12.88
2019-03-13T06:27:12.835Z,12.90
2019-03-13T06:29:39.144Z,12.94
2019-03-13T06:32:05.593Z,13.01
2019-03-13T06:34:31.921Z,13.34
2019-03-13T06:36:58.223Z,13.67
2019-03-13T06:39:24.568Z,13.91
2019-03-13T06:41:50.872Z,14.12
2019-03-13T06:44:17.175Z,14.36
2019-03-13T06:46:43.490Z,14.71
2019-03-13T06:49:09.805Z,15.07
2019-03-13T06:51:36.133Z,15.40
2019-03-13T06:54:02.441Z,15.71
2019-03-13T06:56:28.968Z,16.00
2019-03-13T06:58:55.280Z,16.27
2019-03-13T07:01:21.590Z,16.53
2019-03-13T07:03:47.890Z,16.79
2019-03-13T07:06:14.494Z,17.00
2019-03-13T07:08:40.804Z,17.24
2019-03-13T07:11:07.114Z,17.47
2019-03-13T07:13:33.421Z,17.74
2019-03-13T07:15:59.785Z,17.99
2019-03-13T07:18:26.084Z,18.19
2019-03-13T07:20:52.419Z,18.42
2019-03-13T07:23:18.782Z,18.65
2019-03-13T07:25:45.120Z,18.84
2019-03-13T07:28:11.436Z,19.09
2019-03-13T07:30:37.735Z,19.30
2019-03-13T07:33:04.113Z,19.51
2019-03-13T07:35:30.434Z,19.71
2019-03-13T07:37:56.748Z,19.89
2019-03-13T07:40:23.063Z,20.05
2019-03-13T07:42:49.366Z,20.27
2019-03-13T07:45:15.690Z,20.48
2019-03-13T07:47:41.999Z,20.66
2019-03-13T07:50:08.307Z,20.85
2019-03-13T07:52:34.786Z,20.86
2019-03-13T07:55:01.135Z,20.84
2019-03-13T07:57:27.443Z,20.90
2019-03-13T07:59:53.759Z,21.06
2019-03-13T08:02:20.068Z,21.37
2019-03-13T08:04:46.376Z,21.72
2019-03-13T08:07:12.692Z,21.76
2019-03-13T08:09:39.011Z,21.71
2019-03-13T08:12:05.339Z,21.92
2019-03-13T08:14:31.673Z,21.92
2019-03-13T08:16:57.988Z,21.74
2019-03-13T08:19:24.692Z,21.62
2019-03-13T08:21:50.626Z,21.41
2019-03-13T08:24:16.936Z,21.16
2019-03-13T08:26:43.321Z,20.97
2019-03-13T08:29:09.631Z,20.87
2019-03-13T08:31:35.939Z,20.84
2019-03-13T08:34:02.304Z,21.00
2019-03-13T08:36:28.728Z,20.88
2019-03-13T08:38:55.034Z,20.60
2019-03-13T08:41:21.344Z,20.43
2019-03-13T08:43:47.657Z,20.43
2019-03-13T08:46:13.964Z,20.87
2019-03-13T08:48:40.288Z,21.42
2019-03-13T08:51:06.603Z,21.72
2019-03-13T08:53:32.920Z,21.86
2019-03-13T08:55:59.228Z,21.72
2019-03-13T08:58:25.541Z,21.96
2019-03-13T09:00:51.856Z,22.38
2019-03-13T09:03:18.185Z,22.55
2019-03-13T09:05:44.469Z,22.56
2019-03-13T09:08:10.780Z,22.28
2019-03-13T09:10:37.111Z,22.33
2019-03-13T09:13:03.432Z,22.75
2019-03-13T09:15:29.794Z,22.90
2019-03-13T09:17:56.066Z,22.74
2019-03-13T09:20:22.376Z,22.88
2019-03-13T09:22:48.722Z,22.92
2019-03-13T09:25:14.996Z,22.83
2019-03-13T09:27:41.308Z,22.72
2019-03-13T09:30:07.614Z,22.72
2019-03-13T09:32:33.937Z,22.79
2019-03-13T09:35:00.369Z,23.19
2019-03-13T09:37:26.572Z,23.65
2019-03-13T09:39:52.878Z,24.07
2019-03-13T09:42:19.202Z,24.44
2019-03-13T09:44:45.506Z,24.66
2019-03-13T09:47:11.812Z,24.75
2019-03-13T09:49:38.124Z,24.88
2019-03-13T09:52:04.431Z,25.03
2019-03-13T09:54:30.742Z,25.07
2019-03-13T09:56:57.047Z,25.24
2019-03-13T09:59:23.416Z,25.32
2019-03-13T10:01:49.734Z,25.18
2019-03-13T10:04:16.046Z,25.25
2019-03-13T10:06:42.426Z,25.42
2019-03-13T10:09:08.746Z,25.61
2019-03-13T10:11:35.111Z,25.68
2019-03-13T10:14:01.417Z,25.48
2019-03-13T10:16:27.763Z,25.39
2019-03-13T10:18:54.066Z,25.47
2019-03-13T10:21:20.382Z,25.63
2019-03-13T10:23:46.694Z,25.73
2019-03-13T10:26:13.009Z,25.83
2019-03-13T10:28:39.335Z,25.71
2019-03-13T10:31:05.642Z,25.62
2019-03-13T10:33:31.955Z,25.53
2019-03-13T10:35:58.281Z,25.57
2019-03-13T10:38:24.588Z,25.48
2019-03-13T10:40:50.921Z,25.35
2019-03-13T10:43:17.229Z,25.46
2019-03-13T10:45:43.565Z,25.52
2019-03-13T10:48:09.875Z,25.69
2019-03-13T10:50:36.191Z,25.91
2019-03-13T10:53:02.495Z,26.15
2019-03-13T10:55:28.818Z,26.25
2019-03-13T10:57:55.201Z,26.47
2019-03-13T11:00:21.550Z,26.47
2019-03-13T11:02:47.865Z,26.53
2019-03-13T11:05:14.190Z,26.57
2019-03-13T11:07:40.501Z,26.51
2019-03-13T11:10:06.809Z,26.56
2019-03-13T11:12:33.135Z,26.67
2019-03-13T11:14:59.446Z,26.82
2019-03-13T11:17:25.780Z,26.86
2019-03-13T11:19:52.092Z,26.73
2019-03-13T11:22:18.406Z,26.67
2019-03-13T11:24:44.718Z,26.73
2019-03-13T11:27:11.050Z,26.82
2019-03-13T11:29:37.376Z,26.93
2019-03-13T11:32:03.689Z,26.99
2019-03-13T11:34:30.011Z,27.08
2019-03-13T11:36:56.519Z,27.15
2019-03-13T11:39:24.066Z,27.21
2019-03-13T11:41:49.127Z,27.25
2019-03-13T11:44:15.456Z,27.10
2019-03-13T11:46:41.764Z,27.05
2019-03-13T11:49:08.075Z,26.96
2019-03-13T11:51:34.397Z,26.68
2019-03-13T11:54:00.691Z,26.32
2019-03-13T11:56:27.001Z,25.98
2019-03-13T11:58:53.310Z,25.76
2019-03-13T12:01:19.619Z,25.56
2019-03-13T12:03:45.919Z,25.38
2019-03-13T12:06:12.293Z,25.20
2019-03-13T12:08:38.585Z,25.05
2019-03-13T12:11:04.918Z,24.95
2019-03-13T12:13:31.229Z,24.84
2019-03-13T12:15:57.539Z,24.73
2019-03-13T12:18:23.855Z,24.72
2019-03-13T12:20:50.161Z,24.65
2019-03-13T12:23:16.478Z,24.71
2019-03-13T12:25:42.779Z,24.70
2019-03-13T12:28:09.355Z,24.73
2019-03-13T12:30:35.645Z,24.83
2019-03-13T12:33:01.963Z,24.90
2019-03-13T12:35:28.278Z,24.98
2019-03-13T12:37:54.588Z,24.92
2019-03-13T12:40:20.898Z,24.84
2019-03-13T12:42:47.209Z,24.88
2019-03-13T12:45:13.517Z,24.89
2019-03-13T12:47:39.830Z,24.89
2019-03-13T12:50:07.955Z,24.90
2019-03-13T12:52:34.225Z,24.96
2019-03-13T12:55:02.204Z,24.91
2019-03-13T12:57:26.888Z,24.81
2019-03-13T12:59:53.202Z,24.74
2019-03-13T13:02:19.529Z,24.70
2019-03-13T13:04:45.853Z,24.72
2019-03-13T13:07:12.189Z,24.73
2019-03-13T13:09:38.498Z,24.67
2019-03-13T13:12:04.800Z,24.58
2019-03-13T13:14:31.123Z,24.57
2019-03-13T13:16:57.431Z,24.55
2019-03-13T13:19:23.737Z,24.53
2019-03-13T13:21:50.057Z,24.45
2019-03-13T13:24:16.354Z,24.36
2019-03-13T13:26:42.675Z,24.28
2019-03-13T13:29:08.991Z,24.20
2019-03-13T13:31:35.303Z,24.12
2019-03-13T13:34:01.643Z,24.02
2019-03-13T13:36:27.932Z,23.94
2019-03-13T13:38:54.250Z,23.85
2019-03-13T13:41:20.602Z,23.77
2019-03-13T13:43:46.860Z,23.68
2019-03-13T13:46:13.185Z,23.58
2019-03-13T13:48:39.492Z,23.50
2019-03-13T13:51:05.803Z,23.40
2019-03-13T13:53:32.112Z,23.38
2019-03-13T13:55:58.456Z,23.33
2019-03-13T13:58:24.756Z,23.27
2019-03-13T14:00:51.073Z,23.19
2019-03-13T14:03:17.386Z,23.16
2019-03-13T14:05:43.732Z,23.10
2019-03-13T14:08:10.089Z,23.05
2019-03-13T14:10:36.399Z,22.99
2019-03-13T14:13:02.740Z,22.91
2019-03-13T14:15:29.081Z,22.86
2019-03-13T14:17:55.390Z,22.79
2019-03-13T14:20:21.712Z,22.74
2019-03-13T14:22:48.026Z,22.68
2019-03-13T14:25:14.350Z,22.61
2019-03-13T14:27:40.650Z,22.53
2019-03-13T14:30:06.963Z,22.46
2019-03-13T14:32:33.282Z,22.39
2019-03-13T14:34:59.611Z,22.33
2019-03-13T14:37:25.908Z,22.28
2019-03-13T14:39:52.245Z,22.22
2019-03-13T14:42:18.556Z,22.16
2019-03-13T14:44:44.860Z,22.11
2019-03-13T14:47:11.175Z,22.05
2019-03-13T14:49:37.485Z,22.01
2019-03-13T14:52:03.805Z,21.96
2019-03-13T14:54:30.113Z,21.91
2019-03-13T14:56:56.422Z,21.88
2019-03-13T14:59:22.724Z,21.83
2019-03-13T15:01:49.051Z,21.79
2019-03-13T15:04:15.356Z,21.74
2019-03-13T15:06:41.719Z,21.68
2019-03-13T15:09:08.004Z,21.03
2019-03-13T15:11:34.320Z,18.38
2019-03-13T15:14:00.630Z,17.18
2019-03-13T15:16:26.943Z,17.56
2019-03-13T15:18:53.243Z,18.14
2019-03-13T15:21:19.546Z,18.61
2019-03-13T15:23:48.660Z,18.91
2019-03-13T15:26:15.112Z,19.15
2019-03-13T15:28:41.502Z,19.28
2019-03-13T15:31:07.771Z,19.34
2019-03-13T15:33:34.084Z,19.40
2019-03-13T15:36:00.392Z,19.42
2019-03-13T15:38:26.705Z,19.41
2019-03-13T15:40:53.040Z,19.40
2019-03-13T15:43:19.330Z,19.41
2019-03-13T15:45:45.636Z,19.38
2019-03-13T15:48:12.021Z,19.35
2019-03-13T15:50:38.294Z,19.29
2019-03-13T15:53:04.601Z,19.29
2019-03-13T15:55:30.915Z,19.24
2019-03-13T15:57:57.240Z,19.21
2019-03-13T16:00:23.558Z,19.26
2019-03-13T16:02:49.864Z,19.32
2019-03-13T16:05:16.201Z,19.37
2019-03-13T16:07:42.511Z,19.38
2019-03-13T16:10:08.841Z,19.39
2019-03-13T16:12:35.177Z,19.38
2019-03-13T16:15:01.493Z,19.36
2019-03-13T16:17:27.795Z,19.34
2019-03-13T16:19:54.107Z,19.30
2019-03-13T16:22:22.956Z,19.26
2019-03-13T16:24:49.263Z,19.23
2019-03-13T16:27:15.572Z,19.19
2019-03-13T16:29:41.883Z,19.18
2019-03-13T16:32:08.192Z,19.13
2019-03-13T16:34:34.519Z,19.07
2019-03-13T16:37:00.837Z,19.05
2019-03-13T16:39:27.142Z,19.00
2019-03-13T16:41:53.474Z,18.96
2019-03-13T16:44:19.774Z,18.91
2019-03-13T16:46:46.113Z,18.88
2019-03-13T16:49:12.412Z,18.84
2019-03-13T16:51:38.720Z,18.79
2019-03-13T16:54:05.031Z,18.76
2019-03-13T16:56:31.357Z,18.72
2019-03-13T16:58:57.656Z,18.67
2019-03-13T17:01:23.970Z,18.64
2019-03-13T17:03:50.289Z,18.61
2019-03-13T17:06:16.650Z,18.56
2019-03-13T17:08:42.938Z,18.53
2019-03-13T17:11:09.298Z,18.51
2019-03-13T17:13:35.576Z,18.44
2019-03-13T17:16:01.879Z,18.45
2019-03-13T17:18:28.212Z,18.51
2019-03-13T17:20:54.521Z,18.54
2019-03-13T17:23:20.829Z,18.49
2019-03-13T17:25:47.136Z,18.43
2019-03-13T17:28:13.449Z,18.41
2019-03-13T17:30:39.756Z,18.36
2019-03-13T17:33:06.069Z,18.30
2019-03-13T17:35:32.382Z,18.27
2019-03-13T17:37:58.684Z,18.24
2019-03-13T17:40:25.090Z,18.19
2019-03-13T17:42:51.624Z,18.18
2019-03-13T17:45:17.953Z,18.13
2019-03-13T17:47:44.259Z,18.08
2019-03-13T17:50:10.568Z,18.04
2019-03-13T17:52:36.920Z,17.99
2019-03-13T17:55:03.234Z,17.85
2019-03-13T17:57:29.560Z,17.64
2019-03-13T17:59:55.874Z,17.76
2019-03-13T18:02:22.176Z,17.78
2019-03-13T18:04:48.503Z,17.79
2019-03-13T18:07:14.807Z,17.76
2019-03-13T18:09:41.119Z,17.75
2019-03-13T18:12:07.425Z,17.72
2019-03-13T18:14:33.769Z,17.69
2019-03-13T18:17:00.077Z,17.73
2019-03-13T18:19:26.446Z,17.76
2019-03-13T18:21:52.732Z,17.75
2019-03-13T18:24:19.036Z,17.70
2019-03-13T18:26:45.387Z,17.65
2019-03-13T18:29:11.701Z,17.61
2019-03-13T18:31:38.067Z,17.56
2019-03-13T18:34:04.486Z,17.51
2019-03-13T18:36:30.807Z,17.48
2019-03-13T18:38:57.122Z,17.43
2019-03-13T18:41:23.563Z,17.39
2019-03-13T18:43:49.748Z,17.36
2019-03-13T18:46:16.056Z,17.32
2019-03-13T18:48:42.359Z,17.31
2019-03-13T18:51:08.670Z,17.28
2019-03-13T18:53:34.975Z,17.25
2019-03-13T18:56:01.280Z,17.27
2019-03-13T18:58:27.617Z,17.24
2019-03-13T19:00:53.924Z,17.08
2019-03-13T19:03:20.241Z,16.90
2019-03-13T19:05:46.546Z,16.77
2019-03-13T19:08:12.848Z,16.63
2019-03-13T19:10:39.160Z,16.52
2019-03-13T19:13:05.468Z,16.41
2019-03-13T19:15:31.803Z,16.36
2019-03-13T19:18:00.463Z,16.27
2019-03-13T19:20:24.451Z,16.24
2019-03-13T19:22:50.773Z,16.18
2019-03-13T19:25:17.079Z,16.11
2019-03-13T19:27:43.402Z,16.06
2019-03-13T19:30:09.703Z,15.99
2019-03-13T19:32:36.070Z,15.95
2019-03-13T19:35:02.388Z,15.92
2019-03-13T19:37:28.700Z,15.88
2019-03-13T19:39:55.007Z,15.63
2019-03-13T19:42:21.334Z,15.24
2019-03-13T19:44:47.649Z,15.26
2019-03-13T19:47:13.957Z,15.35
2019-03-13T19:49:40.259Z,15.53
2019-03-13T19:52:06.569Z,15.73
2019-03-13T19:54:32.909Z,15.76
2019-03-13T19:56:59.205Z,15.70
2019-03-13T19:59:25.510Z,15.66
2019-03-13T20:01:51.857Z,15.62
2019-03-13T20:04:18.161Z,15.57
2019-03-13T20:06:44.459Z,15.53
2019-03-13T20:09:10.763Z,15.47
2019-03-13T20:11:37.106Z,15.43
2019-03-13T20:14:03.445Z,15.38
2019-03-13T20:16:29.729Z,15.35
2019-03-13T20:18:56.036Z,15.31
2019-03-13T20:21:22.339Z,15.27
2019-03-13T20:23:48.640Z,15.22
2019-03-13T20:26:14.946Z,15.17
2019-03-13T20:28:41.269Z,15.12
2019-03-13T20:31:07.571Z,15.09
2019-03-13T20:33:33.910Z,15.06
2019-03-13T20:36:00.215Z,15.03
2019-03-13T20:38:26.534Z,15.00
2019-03-13T20:40:52.842Z,14.98
2019-03-13T20:43:19.147Z,14.96
2019-03-13T20:45:45.497Z,14.92
2019-03-13T20:48:11.807Z,14.89
2019-03-13T20:50:38.337Z,14.86
2019-03-13T20:53:04.423Z,14.80
2019-03-13T20:55:30.731Z,14.78
2019-03-13T20:57:57.042Z,14.77
2019-03-13T21:00:23.381Z,14.74
2019-03-13T21:02:49.731Z,14.72
2019-03-13T21:05:16.040Z,14.69
2019-03-13T21:07:42.415Z,14.68
2019-03-13T21:10:08.656Z,14.65
2019-03-13T21:12:34.963Z,14.62
2019-03-13T21:15:01.273Z,14.60
2019-03-13T21:17:27.596Z,14.58
2019-03-13T21:19:53.913Z,14.56
2019-03-13T21:22:20.228Z,14.52
2019-03-13T21:24:46.534Z,14.49
2019-03-13T21:27:12.845Z,14.48
2019-03-13T21:29:39.147Z,14.45
2019-03-13T21:32:05.490Z,14.42
2019-03-13T21:34:31.795Z,14.40
2019-03-13T21:36:58.136Z,14.38
2019-03-13T21:39:24.440Z,14.35
2019-03-13T21:41:50.745Z,14.32
2019-03-13T21:44:17.056Z,14.27
2019-03-13T21:46:43.362Z,14.24
2019-03-13T21:49:09.673Z,14.23
2019-03-13T21:51:35.981Z,14.21
2019-03-13T21:54:02.331Z,14.17
2019-03-13T21:56:28.642Z,14.15
2019-03-13T21:58:54.951Z,14.12
2019-03-13T22:01:21.254Z,14.10
2019-03-13T22:03:47.560Z,14.07
2019-03-13T22:06:13.879Z,14.05
2019-03-13T22:08:40.181Z,14.04
2019-03-13T22:11:06.507Z,14.01
2019-03-13T22:13:32.815Z,13.99
2019-03-13T22:15:59.317Z,13.95
2019-03-13T22:18:25.443Z,13.92
2019-03-13T22:20:51.749Z,13.92
2019-03-13T22:23:18.056Z,13.91
2019-03-13T22:25:44.359Z,13.89
2019-03-13T22:28:10.718Z,13.88
2019-03-13T22:30:37.045Z,13.85
2019-03-13T22:33:03.346Z,13.85
2019-03-13T22:35:29.657Z,13.83
2019-03-13T22:37:55.967Z,13.81
2019-03-13T22:40:22.284Z,13.78
2019-03-13T22:42:48.596Z,13.76
2019-03-13T22:45:14.903Z,13.75
2019-03-13T22:47:42.942Z,13.74
2019-03-13T22:50:07.529Z,13.72
2019-03-13T22:52:33.864Z,13.70
2019-03-13T22:55:00.398Z,13.68
2019-03-13T22:57:26.483Z,13.67
2019-03-13T22:59:52.810Z,13.64
2019-03-13T23:02:19.192Z,13.62
2019-03-13T23:04:45.498Z,13.60
2019-03-13T23:07:14.838Z,13.58
2019-03-13T23:09:41.149Z,13.55
2019-03-13T23:12:09.877Z,13.53
2019-03-13T23:14:36.196Z,13.52
2019-03-13T23:17:02.510Z,13.50
2019-03-13T23:19:28.836Z,13.50
2019-03-13T23:21:55.144Z,13.47
2019-03-13T23:24:21.448Z,13.45
2019-03-13T23:26:47.763Z,13.43
2019-03-13T23:29:14.080Z,13.40
2019-03-13T23:31:40.387Z,13.37
2019-03-13T23:34:06.703Z,13.36
2019-03-13T23:36:33.009Z,13.33
2019-03-13T23:38:59.316Z,13.30
2019-03-13T23:41:25.686Z,13.27
2019-03-13T23:43:51.994Z,13.26
2019-03-13T23:46:18.297Z,13.25
2019-03-13T23:48:44.604Z,13.23
2019-03-13T23:51:10.961Z,13.20
2019-03-13T23:53:37.277Z,13.18
2019-03-13T23:56:03.584Z,13.17
2019-03-13T23:58:29.889Z,13.13
